sensor_id;sensor_type;location;lat;lon;timestamp;P1;durP1;ratioP1;P2;durP2;ratioP2
61840;SDS011;47773;53.174;6.614;2023-04-03T00:01:14;3.25;;;0.90;;
61840;SDS011;47773;53.174;6.614;2023-04-03T00:03:40;3.90;;;0.88;;
61840;SDS011;47773;53.174;6.614;2023-04-03T00:06:06;3.58;;;0.68;;
61840;SDS011;47773;53.174;6.614;2023-04-03T00:08:34;2.08;;;0.80;;
61840;SDS011;47773;53.174;6.614;2023-04-03T00:11:00;1.60;;;0.55;;
61840;SDS011;47773;53.174;6.614;2023-04-03T00:13:26;3.95;;;0.68;;
61840;SDS011;47773;53.174;6.614;2023-04-03T00:15:52;5.35;;;0.90;;
61840;SDS011;47773;53.174;6.614;2023-04-03T00:18:18;2.50;;;0.60;;
61840;SDS011;47773;53.174;6.614;2023-04-03T00:20:44;2.30;;;0.70;;
61840;SDS011;47773;53.174;6.614;2023-04-03T00:23:10;5.13;;;1.00;;
61840;SDS011;47773;53.174;6.614;2023-04-03T00:25:36;3.45;;;0.90;;
61840;SDS011;47773;53.174;6.614;2023-04-03T00:28:02;3.15;;;0.90;;
61840;SDS011;47773;53.174;6.614;2023-04-03T00:30:28;1.70;;;0.60;;
61840;SDS011;47773;53.174;6.614;2023-04-03T00:32:54;2.42;;;0.80;;
61840;SDS011;47773;53.174;6.614;2023-04-03T00:35:21;2.97;;;0.85;;
61840;SDS011;47773;53.174;6.614;2023-04-03T00:37:47;2.47;;;0.98;;
61840;SDS011;47773;53.174;6.614;2023-04-03T00:40:15;4.95;;;1.00;;
61840;SDS011;47773;53.174;6.614;2023-04-03T00:42:42;2.17;;;0.80;;
61840;SDS011;47773;53.174;6.614;2023-04-03T00:47:57;1.70;;;0.73;;
61840;SDS011;47773;53.174;6.614;2023-04-03T00:50:25;4.88;;;0.77;;
61840;SDS011;47773;53.174;6.614;2023-04-03T00:52:52;2.67;;;0.80;;
61840;SDS011;47773;53.174;6.614;2023-04-03T00:55:20;1.85;;;0.70;;
61840;SDS011;47773;53.174;6.614;2023-04-03T00:57:46;2.70;;;0.90;;
61840;SDS011;47773;53.174;6.614;2023-04-03T01:00:14;3.83;;;1.20;;
61840;SDS011;47773;53.174;6.614;2023-04-03T01:02:43;2.88;;;0.90;;
61840;SDS011;47773;53.174;6.614;2023-04-03T01:05:11;5.00;;;1.10;;
61840;SDS011;47773;53.174;6.614;2023-04-03T01:07:37;4.03;;;0.88;;
61840;SDS011;47773;53.174;6.614;2023-04-03T01:10:06;1.58;;;0.90;;
61840;SDS011;47773;53.174;6.614;2023-04-03T01:12:38;3.13;;;0.80;;
61840;SDS011;47773;53.174;6.614;2023-04-03T01:15:38;1.95;;;0.80;;
61840;SDS011;47773;53.174;6.614;2023-04-03T01:17:59;2.80;;;0.90;;
61840;SDS011;47773;53.174;6.614;2023-04-03T01:20:34;1.90;;;1.00;;
61840;SDS011;47773;53.174;6.614;2023-04-03T01:25:49;5.97;;;1.00;;
61840;SDS011;47773;53.174;6.614;2023-04-03T01:28:24;2.67;;;0.80;;
61840;SDS011;47773;53.174;6.614;2023-04-03T01:33:29;6.07;;;1.20;;
61840;SDS011;47773;53.174;6.614;2023-04-03T01:35:55;8.20;;;1.40;;
61840;SDS011;47773;53.174;6.614;2023-04-03T01:38:20;2.25;;;0.93;;
61840;SDS011;47773;53.174;6.614;2023-04-03T01:40:46;3.03;;;0.98;;
61840;SDS011;47773;53.174;6.614;2023-04-03T01:43:12;3.97;;;0.98;;
61840;SDS011;47773;53.174;6.614;2023-04-03T01:45:37;4.07;;;1.27;;
61840;SDS011;47773;53.174;6.614;2023-04-03T01:48:03;3.78;;;1.30;;
61840;SDS011;47773;53.174;6.614;2023-04-03T01:50:29;3.63;;;1.05;;
61840;SDS011;47773;53.174;6.614;2023-04-03T01:52:55;4.25;;;1.13;;
61840;SDS011;47773;53.174;6.614;2023-04-03T01:55:20;7.90;;;1.10;;
61840;SDS011;47773;53.174;6.614;2023-04-03T01:57:46;5.57;;;1.08;;
61840;SDS011;47773;53.174;6.614;2023-04-03T02:00:12;5.38;;;1.10;;
61840;SDS011;47773;53.174;6.614;2023-04-03T02:02:38;5.68;;;1.10;;
61840;SDS011;47773;53.174;6.614;2023-04-03T02:05:04;7.88;;;1.20;;
61840;SDS011;47773;53.174;6.614;2023-04-03T02:07:32;6.65;;;1.20;;
61840;SDS011;47773;53.174;6.614;2023-04-03T02:09:57;5.38;;;1.27;;
61840;SDS011;47773;53.174;6.614;2023-04-03T02:12:25;2.58;;;0.90;;
61840;SDS011;47773;53.174;6.614;2023-04-03T02:14:50;6.55;;;1.20;;
61840;SDS011;47773;53.174;6.614;2023-04-03T02:17:16;4.32;;;1.10;;
61840;SDS011;47773;53.174;6.614;2023-04-03T02:19:42;2.90;;;1.13;;
61840;SDS011;47773;53.174;6.614;2023-04-03T02:22:08;2.85;;;1.10;;
61840;SDS011;47773;53.174;6.614;2023-04-03T02:24:33;6.38;;;1.20;;
61840;SDS011;47773;53.174;6.614;2023-04-03T02:26:59;5.70;;;1.45;;
61840;SDS011;47773;53.174;6.614;2023-04-03T02:29:25;3.33;;;1.10;;
61840;SDS011;47773;53.174;6.614;2023-04-03T02:31:50;6.50;;;1.40;;
61840;SDS011;47773;53.174;6.614;2023-04-03T02:34:16;6.38;;;1.52;;
61840;SDS011;47773;53.174;6.614;2023-04-03T02:36:42;3.75;;;1.33;;
61840;SDS011;47773;53.174;6.614;2023-04-03T02:39:08;2.47;;;1.08;;
61840;SDS011;47773;53.174;6.614;2023-04-03T02:41:34;9.93;;;1.42;;
61840;SDS011;47773;53.174;6.614;2023-04-03T02:44:03;2.60;;;1.25;;
61840;SDS011;47773;53.174;6.614;2023-04-03T02:46:34;6.22;;;1.20;;
61840;SDS011;47773;53.174;6.614;2023-04-03T02:48:59;6.63;;;1.50;;
61840;SDS011;47773;53.174;6.614;2023-04-03T02:51:25;2.92;;;0.95;;
61840;SDS011;47773;53.174;6.614;2023-04-03T02:53:51;5.55;;;1.20;;
61840;SDS011;47773;53.174;6.614;2023-04-03T02:56:17;5.70;;;1.42;;
61840;SDS011;47773;53.174;6.614;2023-04-03T02:58:44;4.28;;;1.38;;
61840;SDS011;47773;53.174;6.614;2023-04-03T03:01:10;6.53;;;1.20;;
61840;SDS011;47773;53.174;6.614;2023-04-03T03:03:36;5.45;;;1.42;;
61840;SDS011;47773;53.174;6.614;2023-04-03T03:06:06;9.75;;;1.70;;
61840;SDS011;47773;53.174;6.614;2023-04-03T03:08:33;2.55;;;1.08;;
61840;SDS011;47773;53.174;6.614;2023-04-03T03:10:59;5.53;;;1.20;;
61840;SDS011;47773;53.174;6.614;2023-04-03T03:13:25;5.20;;;1.15;;
61840;SDS011;47773;53.174;6.614;2023-04-03T03:15:51;8.93;;;1.25;;
61840;SDS011;47773;53.174;6.614;2023-04-03T03:18:17;4.03;;;1.38;;
61840;SDS011;47773;53.174;6.614;2023-04-03T03:20:43;3.80;;;1.10;;
61840;SDS011;47773;53.174;6.614;2023-04-03T03:23:08;5.55;;;1.48;;
61840;SDS011;47773;53.174;6.614;2023-04-03T03:25:38;5.63;;;1.40;;
61840;SDS011;47773;53.174;6.614;2023-04-03T03:28:05;5.18;;;1.48;;
61840;SDS011;47773;53.174;6.614;2023-04-03T03:30:31;4.28;;;1.60;;
61840;SDS011;47773;53.174;6.614;2023-04-03T03:32:56;9.00;;;1.45;;
61840;SDS011;47773;53.174;6.614;2023-04-03T03:35:22;5.85;;;1.50;;
61840;SDS011;47773;53.174;6.614;2023-04-03T03:37:48;3.85;;;1.08;;
61840;SDS011;47773;53.174;6.614;2023-04-03T03:40:13;7.60;;;1.35;;
61840;SDS011;47773;53.174;6.614;2023-04-03T03:42:39;11.27;;;1.70;;
61840;SDS011;47773;53.174;6.614;2023-04-03T03:45:05;5.93;;;1.60;;
61840;SDS011;47773;53.174;6.614;2023-04-03T03:47:31;5.15;;;1.65;;
61840;SDS011;47773;53.174;6.614;2023-04-03T03:49:57;4.70;;;1.60;;
61840;SDS011;47773;53.174;6.614;2023-04-03T03:52:22;4.90;;;1.52;;
61840;SDS011;47773;53.174;6.614;2023-04-03T03:54:48;7.10;;;1.65;;
61840;SDS011;47773;53.174;6.614;2023-04-03T03:57:14;4.78;;;1.52;;
61840;SDS011;47773;53.174;6.614;2023-04-03T03:59:40;6.22;;;1.58;;
61840;SDS011;47773;53.174;6.614;2023-04-03T04:02:07;6.10;;;1.52;;
61840;SDS011;47773;53.174;6.614;2023-04-03T04:04:33;6.40;;;1.63;;
61840;SDS011;47773;53.174;6.614;2023-04-03T04:06:58;4.95;;;1.17;;
61840;SDS011;47773;53.174;6.614;2023-04-03T04:09:25;7.65;;;1.55;;
61840;SDS011;47773;53.174;6.614;2023-04-03T04:11:52;4.25;;;1.70;;
61840;SDS011;47773;53.174;6.614;2023-04-03T04:14:18;5.20;;;1.50;;
61840;SDS011;47773;53.174;6.614;2023-04-03T04:16:45;7.35;;;1.73;;
61840;SDS011;47773;53.174;6.614;2023-04-03T04:19:11;10.68;;;1.75;;
61840;SDS011;47773;53.174;6.614;2023-04-03T04:21:37;5.63;;;1.60;;
61840;SDS011;47773;53.174;6.614;2023-04-03T04:24:04;4.22;;;1.70;;
61840;SDS011;47773;53.174;6.614;2023-04-03T04:26:30;6.55;;;1.80;;
61840;SDS011;47773;53.174;6.614;2023-04-03T04:28:56;6.18;;;1.95;;
61840;SDS011;47773;53.174;6.614;2023-04-03T04:31:21;9.95;;;1.60;;
61840;SDS011;47773;53.174;6.614;2023-04-03T04:33:47;6.55;;;1.80;;
61840;SDS011;47773;53.174;6.614;2023-04-03T04:36:12;6.18;;;2.03;;
61840;SDS011;47773;53.174;6.614;2023-04-03T04:38:39;5.75;;;1.90;;
61840;SDS011;47773;53.174;6.614;2023-04-03T04:41:05;5.28;;;2.03;;
61840;SDS011;47773;53.174;6.614;2023-04-03T04:43:31;6.57;;;2.13;;
61840;SDS011;47773;53.174;6.614;2023-04-03T04:46:15;5.47;;;1.98;;
61840;SDS011;47773;53.174;6.614;2023-04-03T04:48:41;6.50;;;1.95;;
61840;SDS011;47773;53.174;6.614;2023-04-03T04:51:07;7.25;;;2.10;;
61840;SDS011;47773;53.174;6.614;2023-04-03T04:53:33;5.53;;;2.30;;
61840;SDS011;47773;53.174;6.614;2023-04-03T04:55:58;4.68;;;2.10;;
61840;SDS011;47773;53.174;6.614;2023-04-03T04:58:24;6.22;;;2.00;;
61840;SDS011;47773;53.174;6.614;2023-04-03T05:00:57;10.35;;;1.70;;
61840;SDS011;47773;53.174;6.614;2023-04-03T05:03:27;7.20;;;1.98;;
61840;SDS011;47773;53.174;6.614;2023-04-03T05:05:53;8.20;;;2.30;;
61840;SDS011;47773;53.174;6.614;2023-04-03T05:08:20;10.93;;;2.30;;
61840;SDS011;47773;53.174;6.614;2023-04-03T05:10:45;8.23;;;2.42;;
61840;SDS011;47773;53.174;6.614;2023-04-03T05:13:11;12.40;;;2.13;;
61840;SDS011;47773;53.174;6.614;2023-04-03T05:15:38;7.22;;;1.92;;
61840;SDS011;47773;53.174;6.614;2023-04-03T05:18:03;9.50;;;2.28;;
61840;SDS011;47773;53.174;6.614;2023-04-03T05:20:30;7.45;;;2.20;;
61840;SDS011;47773;53.174;6.614;2023-04-03T05:22:56;8.73;;;2.53;;
61840;SDS011;47773;53.174;6.614;2023-04-03T05:25:22;8.05;;;2.42;;
61840;SDS011;47773;53.174;6.614;2023-04-03T05:27:47;10.52;;;2.67;;
61840;SDS011;47773;53.174;6.614;2023-04-03T05:30:13;10.73;;;2.30;;
61840;SDS011;47773;53.174;6.614;2023-04-03T05:32:39;8.98;;;2.70;;
61840;SDS011;47773;53.174;6.614;2023-04-03T05:35:06;6.13;;;2.22;;
61840;SDS011;47773;53.174;6.614;2023-04-03T05:37:32;7.07;;;2.30;;
61840;SDS011;47773;53.174;6.614;2023-04-03T05:39:58;8.57;;;2.50;;
61840;SDS011;47773;53.174;6.614;2023-04-03T05:42:24;6.32;;;2.13;;
61840;SDS011;47773;53.174;6.614;2023-04-03T05:44:50;8.00;;;2.28;;
61840;SDS011;47773;53.174;6.614;2023-04-03T05:47:16;10.18;;;2.58;;
61840;SDS011;47773;53.174;6.614;2023-04-03T05:49:42;10.73;;;2.50;;
61840;SDS011;47773;53.174;6.614;2023-04-03T05:52:18;10.68;;;2.45;;
61840;SDS011;47773;53.174;6.614;2023-04-03T05:54:51;8.40;;;2.30;;
61840;SDS011;47773;53.174;6.614;2023-04-03T05:57:16;5.63;;;2.30;;
61840;SDS011;47773;53.174;6.614;2023-04-03T05:59:43;8.50;;;2.28;;
61840;SDS011;47773;53.174;6.614;2023-04-03T06:02:13;7.78;;;2.15;;
61840;SDS011;47773;53.174;6.614;2023-04-03T06:04:44;6.60;;;2.00;;
61840;SDS011;47773;53.174;6.614;2023-04-03T06:07:11;9.80;;;2.50;;
61840;SDS011;47773;53.174;6.614;2023-04-03T06:09:38;5.90;;;2.05;;
61840;SDS011;47773;53.174;6.614;2023-04-03T06:12:04;8.35;;;2.35;;
61840;SDS011;47773;53.174;6.614;2023-04-03T06:14:30;6.75;;;2.08;;
61840;SDS011;47773;53.174;6.614;2023-04-03T06:16:56;6.00;;;2.15;;
61840;SDS011;47773;53.174;6.614;2023-04-03T06:19:22;12.98;;;2.30;;
61840;SDS011;47773;53.174;6.614;2023-04-03T06:21:48;5.03;;;1.90;;
61840;SDS011;47773;53.174;6.614;2023-04-03T06:24:14;7.50;;;2.40;;
61840;SDS011;47773;53.174;6.614;2023-04-03T06:26:41;8.73;;;2.35;;
61840;SDS011;47773;53.174;6.614;2023-04-03T06:29:07;5.57;;;2.17;;
61840;SDS011;47773;53.174;6.614;2023-04-03T06:31:33;5.57;;;2.00;;
61840;SDS011;47773;53.174;6.614;2023-04-03T06:34:00;7.60;;;2.33;;
61840;SDS011;47773;53.174;6.614;2023-04-03T06:36:26;9.02;;;2.40;;
61840;SDS011;47773;53.174;6.614;2023-04-03T06:38:51;6.25;;;2.05;;
61840;SDS011;47773;53.174;6.614;2023-04-03T06:41:17;7.50;;;2.20;;
61840;SDS011;47773;53.174;6.614;2023-04-03T06:43:43;9.25;;;2.25;;
61840;SDS011;47773;53.174;6.614;2023-04-03T06:46:19;8.18;;;1.98;;
61840;SDS011;47773;53.174;6.614;2023-04-03T06:48:47;8.52;;;2.35;;
61840;SDS011;47773;53.174;6.614;2023-04-03T06:51:23;12.60;;;2.50;;
61840;SDS011;47773;53.174;6.614;2023-04-03T06:53:51;11.77;;;2.80;;
61840;SDS011;47773;53.174;6.614;2023-04-03T06:56:18;5.90;;;2.47;;
61840;SDS011;47773;53.174;6.614;2023-04-03T06:58:44;8.05;;;2.38;;
61840;SDS011;47773;53.174;6.614;2023-04-03T07:01:11;6.65;;;1.90;;
61840;SDS011;47773;53.174;6.614;2023-04-03T07:03:38;11.32;;;2.75;;
61840;SDS011;47773;53.174;6.614;2023-04-03T07:06:05;10.98;;;2.28;;
61840;SDS011;47773;53.174;6.614;2023-04-03T07:08:32;10.32;;;2.30;;
61840;SDS011;47773;53.174;6.614;2023-04-03T07:10:58;6.32;;;2.05;;
61840;SDS011;47773;53.174;6.614;2023-04-03T07:13:23;9.48;;;2.15;;
61840;SDS011;47773;53.174;6.614;2023-04-03T07:15:49;7.13;;;2.55;;
61840;SDS011;47773;53.174;6.614;2023-04-03T07:18:15;13.98;;;2.75;;
61840;SDS011;47773;53.174;6.614;2023-04-03T07:20:42;8.25;;;2.70;;
61840;SDS011;47773;53.174;6.614;2023-04-03T07:23:08;6.40;;;2.47;;
61840;SDS011;47773;53.174;6.614;2023-04-03T07:25:34;12.93;;;2.67;;
61840;SDS011;47773;53.174;6.614;2023-04-03T07:27:59;11.18;;;3.58;;
61840;SDS011;47773;53.174;6.614;2023-04-03T07:30:25;10.13;;;2.55;;
61840;SDS011;47773;53.174;6.614;2023-04-03T07:32:51;8.25;;;2.63;;
61840;SDS011;47773;53.174;6.614;2023-04-03T07:35:17;5.55;;;2.33;;
61840;SDS011;47773;53.174;6.614;2023-04-03T07:37:44;10.32;;;2.67;;
61840;SDS011;47773;53.174;6.614;2023-04-03T07:40:10;7.95;;;2.55;;
61840;SDS011;47773;53.174;6.614;2023-04-03T07:42:35;6.53;;;2.28;;
61840;SDS011;47773;53.174;6.614;2023-04-03T07:45:02;9.00;;;2.08;;
61840;SDS011;47773;53.174;6.614;2023-04-03T07:47:29;8.05;;;1.70;;
61840;SDS011;47773;53.174;6.614;2023-04-03T07:49:56;6.20;;;1.80;;
61840;SDS011;47773;53.174;6.614;2023-04-03T07:52:22;6.93;;;2.45;;
61840;SDS011;47773;53.174;6.614;2023-04-03T07:54:48;5.90;;;1.48;;
61840;SDS011;47773;53.174;6.614;2023-04-03T07:57:14;8.15;;;1.48;;
61840;SDS011;47773;53.174;6.614;2023-04-03T07:59:39;7.35;;;1.55;;
61840;SDS011;47773;53.174;6.614;2023-04-03T08:02:10;5.60;;;1.38;;
61840;SDS011;47773;53.174;6.614;2023-04-03T08:04:37;5.28;;;1.42;;
61840;SDS011;47773;53.174;6.614;2023-04-03T08:07:03;4.20;;;1.50;;
61840;SDS011;47773;53.174;6.614;2023-04-03T08:09:28;7.05;;;1.50;;
61840;SDS011;47773;53.174;6.614;2023-04-03T08:11:54;5.18;;;1.45;;
61840;SDS011;47773;53.174;6.614;2023-04-03T08:14:20;7.65;;;1.58;;
61840;SDS011;47773;53.174;6.614;2023-04-03T08:16:46;5.03;;;1.25;;
61840;SDS011;47773;53.174;6.614;2023-04-03T08:19:12;8.23;;;1.95;;
61840;SDS011;47773;53.174;6.614;2023-04-03T08:21:42;10.88;;;1.42;;
61840;SDS011;47773;53.174;6.614;2023-04-03T08:24:08;6.03;;;1.33;;
61840;SDS011;47773;53.174;6.614;2023-04-03T08:26:35;4.05;;;1.30;;
61840;SDS011;47773;53.174;6.614;2023-04-03T08:29:01;4.65;;;1.27;;
61840;SDS011;47773;53.174;6.614;2023-04-03T08:31:27;5.70;;;1.63;;
61840;SDS011;47773;53.174;6.614;2023-04-03T08:33:53;7.35;;;1.70;;
61840;SDS011;47773;53.174;6.614;2023-04-03T08:36:23;4.03;;;1.30;;
61840;SDS011;47773;53.174;6.614;2023-04-03T08:38:52;3.58;;;1.40;;
61840;SDS011;47773;53.174;6.614;2023-04-03T08:41:34;7.65;;;1.50;;
61840;SDS011;47773;53.174;6.614;2023-04-03T08:49:44;4.03;;;1.40;;
61840;SDS011;47773;53.174;6.614;2023-04-03T08:55:30;6.05;;;1.70;;
61840;SDS011;47773;53.174;6.614;2023-04-03T08:58:04;8.38;;;1.70;;
61840;SDS011;47773;53.174;6.614;2023-04-03T09:00:49;5.43;;;1.63;;
61840;SDS011;47773;53.174;6.614;2023-04-03T09:03:20;4.20;;;1.38;;
61840;SDS011;47773;53.174;6.614;2023-04-03T09:05:52;6.30;;;1.67;;
61840;SDS011;47773;53.174;6.614;2023-04-03T09:08:50;7.93;;;1.80;;
61840;SDS011;47773;53.174;6.614;2023-04-03T09:11:25;6.30;;;1.73;;
61840;SDS011;47773;53.174;6.614;2023-04-03T09:16:57;6.65;;;1.30;;
61840;SDS011;47773;53.174;6.614;2023-04-03T09:22:02;6.37;;;1.50;;
61840;SDS011;47773;53.174;6.614;2023-04-03T09:24:39;7.25;;;1.15;;
61840;SDS011;47773;53.174;6.614;2023-04-03T09:27:07;5.28;;;1.38;;
61840;SDS011;47773;53.174;6.614;2023-04-03T09:29:40;5.93;;;1.52;;
61840;SDS011;47773;53.174;6.614;2023-04-03T09:32:27;6.70;;;1.20;;
61840;SDS011;47773;53.174;6.614;2023-04-03T09:35:02;5.30;;;1.40;;
61840;SDS011;47773;53.174;6.614;2023-04-03T09:37:39;6.75;;;1.60;;
61840;SDS011;47773;53.174;6.614;2023-04-03T09:41:03;7.63;;;1.50;;
61840;SDS011;47773;53.174;6.614;2023-04-03T09:42:59;6.30;;;1.80;;
61840;SDS011;47773;53.174;6.614;2023-04-03T09:45:33;5.90;;;1.10;;
61840;SDS011;47773;53.174;6.614;2023-04-03T09:50:34;2.17;;;0.88;;
61840;SDS011;47773;53.174;6.614;2023-04-03T09:53:11;2.92;;;1.05;;
61840;SDS011;47773;53.174;6.614;2023-04-03T09:55:59;3.00;;;1.05;;
61840;SDS011;47773;53.174;6.614;2023-04-03T09:58:37;4.93;;;1.10;;
61840;SDS011;47773;53.174;6.614;2023-04-03T10:01:06;4.43;;;1.13;;
61840;SDS011;47773;53.174;6.614;2023-04-03T10:03:45;5.28;;;1.08;;
61840;SDS011;47773;53.174;6.614;2023-04-03T10:06:26;3.05;;;1.08;;
61840;SDS011;47773;53.174;6.614;2023-04-03T10:08:58;3.80;;;1.08;;
61840;SDS011;47773;53.174;6.614;2023-04-03T10:11:26;2.72;;;1.15;;
61840;SDS011;47773;53.174;6.614;2023-04-03T10:13:53;3.90;;;0.85;;
61840;SDS011;47773;53.174;6.614;2023-04-03T10:16:25;3.83;;;1.08;;
61840;SDS011;47773;53.174;6.614;2023-04-03T10:22:15;3.63;;;0.90;;
61840;SDS011;47773;53.174;6.614;2023-04-03T10:30:19;5.43;;;1.23;;
61840;SDS011;47773;53.174;6.614;2023-04-03T10:48:48;3.55;;;0.90;;
61840;SDS011;47773;53.174;6.614;2023-04-03T10:56:41;3.90;;;0.85;;
61840;SDS011;47773;53.174;6.614;2023-04-03T11:01:45;8.23;;;1.30;;
61840;SDS011;47773;53.174;6.614;2023-04-03T11:04:18;3.78;;;0.90;;
61840;SDS011;47773;53.174;6.614;2023-04-03T11:06:51;2.83;;;1.00;;
61840;SDS011;47773;53.174;6.614;2023-04-03T11:12:15;2.30;;;0.85;;
61840;SDS011;47773;53.174;6.614;2023-04-03T11:14:42;3.58;;;0.90;;
61840;SDS011;47773;53.174;6.614;2023-04-03T11:19:57;3.22;;;0.93;;
61840;SDS011;47773;53.174;6.614;2023-04-03T11:27:40;2.47;;;0.80;;
61840;SDS011;47773;53.174;6.614;2023-04-03T11:30:19;3.60;;;1.00;;
61840;SDS011;47773;53.174;6.614;2023-04-03T11:32:58;4.25;;;1.10;;
61840;SDS011;47773;53.174;6.614;2023-04-03T11:35:32;3.17;;;0.80;;
61840;SDS011;47773;53.174;6.614;2023-04-03T11:38:00;3.25;;;0.80;;
61840;SDS011;47773;53.174;6.614;2023-04-03T11:40:31;8.43;;;1.17;;
61840;SDS011;47773;53.174;6.614;2023-04-03T11:45:29;3.92;;;1.10;;
61840;SDS011;47773;53.174;6.614;2023-04-03T11:48:06;3.22;;;0.90;;
61840;SDS011;47773;53.174;6.614;2023-04-03T11:50:47;2.15;;;0.85;;
61840;SDS011;47773;53.174;6.614;2023-04-03T11:55:51;2.80;;;0.82;;
61840;SDS011;47773;53.174;6.614;2023-04-03T11:58:23;6.43;;;0.90;;
61840;SDS011;47773;53.174;6.614;2023-04-03T12:00:53;4.00;;;1.08;;
61840;SDS011;47773;53.174;6.614;2023-04-03T12:03:30;2.95;;;0.93;;
61840;SDS011;47773;53.174;6.614;2023-04-03T12:43:16;4.47;;;1.08;;
61840;SDS011;47773;53.174;6.614;2023-04-03T12:45:29;3.75;;;0.90;;
61840;SDS011;47773;53.174;6.614;2023-04-03T12:48:16;6.47;;;1.10;;
61840;SDS011;47773;53.174;6.614;2023-04-03T12:50:47;3.30;;;1.02;;
61840;SDS011;47773;53.174;6.614;2023-04-03T12:53:27;3.05;;;1.02;;
61840;SDS011;47773;53.174;6.614;2023-04-03T12:56:22;2.90;;;1.05;;
61840;SDS011;47773;53.174;6.614;2023-04-03T12:58:45;6.80;;;1.10;;
61840;SDS011;47773;53.174;6.614;2023-04-03T13:01:12;3.35;;;1.00;;
61840;SDS011;47773;53.174;6.614;2023-04-03T13:03:43;4.45;;;0.90;;
61840;SDS011;47773;53.174;6.614;2023-04-03T13:06:13;3.90;;;1.10;;
61840;SDS011;47773;53.174;6.614;2023-04-03T13:11:17;4.10;;;1.10;;
61840;SDS011;47773;53.174;6.614;2023-04-03T13:13:55;7.00;;;1.30;;
61840;SDS011;47773;53.174;6.614;2023-04-03T13:16:24;4.68;;;1.50;;
61840;SDS011;47773;53.174;6.614;2023-04-03T13:18:54;3.25;;;1.13;;
61840;SDS011;47773;53.174;6.614;2023-04-03T13:21:21;2.65;;;1.20;;
61840;SDS011;47773;53.174;6.614;2023-04-03T13:23:54;4.80;;;1.20;;
61840;SDS011;47773;53.174;6.614;2023-04-03T13:26:24;2.13;;;1.10;;
61840;SDS011;47773;53.174;6.614;2023-04-03T13:28:52;3.33;;;1.17;;
61840;SDS011;47773;53.174;6.614;2023-04-03T13:36:34;3.97;;;1.35;;
61840;SDS011;47773;53.174;6.614;2023-04-03T13:39:17;6.85;;;1.25;;
61840;SDS011;47773;53.174;6.614;2023-04-03T13:41:49;3.95;;;1.00;;
61840;SDS011;47773;53.174;6.614;2023-04-03T13:46:42;5.18;;;1.20;;
61840;SDS011;47773;53.174;6.614;2023-04-03T13:49:20;4.43;;;1.08;;
61840;SDS011;47773;53.174;6.614;2023-04-03T13:51:58;5.25;;;1.13;;
61840;SDS011;47773;53.174;6.614;2023-04-03T13:56:58;5.95;;;1.05;;
61840;SDS011;47773;53.174;6.614;2023-04-03T13:59:33;3.03;;;1.02;;
61840;SDS011;47773;53.174;6.614;2023-04-03T14:04:32;5.57;;;1.10;;
61840;SDS011;47773;53.174;6.614;2023-04-03T14:06:58;5.53;;;1.10;;
61840;SDS011;47773;53.174;6.614;2023-04-03T14:09:25;3.25;;;1.20;;
61840;SDS011;47773;53.174;6.614;2023-04-03T14:11:57;3.58;;;1.40;;
61840;SDS011;47773;53.174;6.614;2023-04-03T14:14:30;6.57;;;1.73;;
61840;SDS011;47773;53.174;6.614;2023-04-03T14:17:00;4.80;;;1.33;;
61840;SDS011;47773;53.174;6.614;2023-04-03T14:21:57;5.68;;;1.10;;
61840;SDS011;47773;53.174;6.614;2023-04-03T14:24:25;4.53;;;1.40;;
61840;SDS011;47773;53.174;6.614;2023-04-03T14:26:53;5.15;;;1.67;;
61840;SDS011;47773;53.174;6.614;2023-04-03T14:29:19;3.85;;;1.48;;
61840;SDS011;47773;53.174;6.614;2023-04-03T14:31:47;3.85;;;1.38;;
61840;SDS011;47773;53.174;6.614;2023-04-03T14:34:15;4.88;;;1.50;;
61840;SDS011;47773;53.174;6.614;2023-04-03T14:36:42;7.72;;;1.20;;
61840;SDS011;47773;53.174;6.614;2023-04-03T14:39:10;8.23;;;1.25;;
61840;SDS011;47773;53.174;6.614;2023-04-03T14:41:41;3.85;;;0.98;;
61840;SDS011;47773;53.174;6.614;2023-04-03T14:44:07;5.07;;;1.50;;
61840;SDS011;47773;53.174;6.614;2023-04-03T14:46:36;6.97;;;1.45;;
61840;SDS011;47773;53.174;6.614;2023-04-03T14:49:14;4.32;;;1.40;;
61840;SDS011;47773;53.174;6.614;2023-04-03T14:51:43;5.38;;;1.30;;
61840;SDS011;47773;53.174;6.614;2023-04-03T14:54:20;4.25;;;1.20;;
61840;SDS011;47773;53.174;6.614;2023-04-03T14:56:52;3.97;;;1.63;;
61840;SDS011;47773;53.174;6.614;2023-04-03T14:59:22;8.23;;;1.88;;
61840;SDS011;47773;53.174;6.614;2023-04-03T15:01:48;4.45;;;1.20;;
61840;SDS011;47773;53.174;6.614;2023-04-03T15:04:15;5.00;;;1.27;;
61840;SDS011;47773;53.174;6.614;2023-04-03T15:06:42;4.20;;;1.38;;
61840;SDS011;47773;53.174;6.614;2023-04-03T15:09:29;6.25;;;1.30;;
61840;SDS011;47773;53.174;6.614;2023-04-03T15:11:54;6.45;;;1.60;;
61840;SDS011;47773;53.174;6.614;2023-04-03T15:14:20;5.00;;;1.17;;
61840;SDS011;47773;53.174;6.614;2023-04-03T15:16:46;6.55;;;1.40;;
61840;SDS011;47773;53.174;6.614;2023-04-03T15:19:13;5.68;;;1.70;;
61840;SDS011;47773;53.174;6.614;2023-04-03T15:21:39;7.95;;;1.48;;
61840;SDS011;47773;53.174;6.614;2023-04-03T15:24:05;3.45;;;1.45;;
61840;SDS011;47773;53.174;6.614;2023-04-03T15:26:31;5.45;;;1.48;;
61840;SDS011;47773;53.174;6.614;2023-04-03T15:28:57;6.22;;;1.58;;
61840;SDS011;47773;53.174;6.614;2023-04-03T15:31:23;4.63;;;1.30;;
61840;SDS011;47773;53.174;6.614;2023-04-03T15:33:49;7.45;;;1.60;;
61840;SDS011;47773;53.174;6.614;2023-04-03T15:36:15;5.40;;;1.55;;
61840;SDS011;47773;53.174;6.614;2023-04-03T15:38:40;6.28;;;1.58;;
61840;SDS011;47773;53.174;6.614;2023-04-03T15:41:06;5.65;;;1.55;;
61840;SDS011;47773;53.174;6.614;2023-04-03T15:43:32;6.55;;;1.40;;
61840;SDS011;47773;53.174;6.614;2023-04-03T15:45:59;3.92;;;1.30;;
61840;SDS011;47773;53.174;6.614;2023-04-03T15:48:25;4.32;;;1.42;;
61840;SDS011;47773;53.174;6.614;2023-04-03T15:50:52;4.47;;;1.33;;
61840;SDS011;47773;53.174;6.614;2023-04-03T15:53:18;5.88;;;1.13;;
61840;SDS011;47773;53.174;6.614;2023-04-03T15:55:44;8.63;;;1.60;;
61840;SDS011;47773;53.174;6.614;2023-04-03T15:58:09;3.75;;;0.93;;
61840;SDS011;47773;53.174;6.614;2023-04-03T16:00:36;3.40;;;0.90;;
61840;SDS011;47773;53.174;6.614;2023-04-03T16:03:06;5.57;;;0.90;;
61840;SDS011;47773;53.174;6.614;2023-04-03T16:05:35;2.00;;;0.80;;
61840;SDS011;47773;53.174;6.614;2023-04-03T16:08:02;3.92;;;0.95;;
61840;SDS011;47773;53.174;6.614;2023-04-03T16:10:30;5.72;;;0.90;;
61840;SDS011;47773;53.174;6.614;2023-04-03T16:12:56;2.25;;;0.95;;
61840;SDS011;47773;53.174;6.614;2023-04-03T16:15:22;3.47;;;1.00;;
61840;SDS011;47773;53.174;6.614;2023-04-03T16:17:49;4.68;;;1.33;;
61840;SDS011;47773;53.174;6.614;2023-04-03T16:20:16;7.45;;;1.40;;
61840;SDS011;47773;53.174;6.614;2023-04-03T16:22:43;6.28;;;1.98;;
61840;SDS011;47773;53.174;6.614;2023-04-03T16:25:09;7.50;;;2.47;;
61840;SDS011;47773;53.174;6.614;2023-04-03T16:27:36;5.38;;;2.42;;
61840;SDS011;47773;53.174;6.614;2023-04-03T16:30:04;5.28;;;1.60;;
61840;SDS011;47773;53.174;6.614;2023-04-03T16:32:31;6.90;;;1.55;;
61840;SDS011;47773;53.174;6.614;2023-04-03T16:34:57;7.75;;;1.40;;
61840;SDS011;47773;53.174;6.614;2023-04-03T16:37:23;5.75;;;1.25;;
61840;SDS011;47773;53.174;6.614;2023-04-03T16:39:49;3.22;;;1.35;;
61840;SDS011;47773;53.174;6.614;2023-04-03T16:42:15;4.63;;;1.33;;
61840;SDS011;47773;53.174;6.614;2023-04-03T16:44:40;5.28;;;1.02;;
61840;SDS011;47773;53.174;6.614;2023-04-03T16:47:06;4.25;;;1.25;;
61840;SDS011;47773;53.174;6.614;2023-04-03T16:49:33;3.78;;;1.20;;
61840;SDS011;47773;53.174;6.614;2023-04-03T16:52:00;5.05;;;1.20;;
61840;SDS011;47773;53.174;6.614;2023-04-03T16:54:27;9.60;;;1.48;;
61840;SDS011;47773;53.174;6.614;2023-04-03T16:56:53;4.43;;;1.40;;
61840;SDS011;47773;53.174;6.614;2023-04-03T16:59:19;5.57;;;1.40;;
61840;SDS011;47773;53.174;6.614;2023-04-03T17:01:45;4.47;;;1.05;;
61840;SDS011;47773;53.174;6.614;2023-04-03T17:04:11;4.60;;;1.45;;